sensor_id;sensor_type;location;lat;lon;timestamp;temperature;humidity
3868;DHT22;1949;48.152;11.528;2024-03-02T00:00:43;12.80;50.40
3868;DHT22;1949;48.152;11.528;2024-03-02T00:03:13;12.80;50.40
3868;DHT22;1949;48.152;11.528;2024-03-02T00:05:40;12.90;50.30
3868;DHT22;1949;48.152;11.528;2024-03-02T00:08:13;12.90;50.20
3868;DHT22;1949;48.152;11.528;2024-03-02T00:10:43;13.00;50.30
3868;DHT22;1949;48.152;11.528;2024-03-02T00:13:09;12.90;50.20
3868;DHT22;1949;48.152;11.528;2024-03-02T00:16:00;13.00;50.30
3868;DHT22;1949;48.152;11.528;2024-03-02T00:18:38;13.00;50.20
3868;DHT22;1949;48.152;11.528;2024-03-02T00:21:06;13.00;50.20
3868;DHT22;1949;48.152;11.528;2024-03-02T00:23:35;13.00;50.10
3868;DHT22;1949;48.152;11.528;2024-03-02T00:26:05;13.00;50.10
3868;DHT22;1949;48.152;11.528;2024-03-02T00:28:34;13.00;50.10
3868;DHT22;1949;48.152;11.528;2024-03-02T00:31:08;13.00;50.10
3868;DHT22;1949;48.152;11.528;2024-03-02T00:33:46;13.00;50.10
3868;DHT22;1949;48.152;11.528;2024-03-02T00:36:17;13.00;50.10
3868;DHT22;1949;48.152;11.528;2024-03-02T00:38:51;13.00;50.10
3868;DHT22;1949;48.152;11.528;2024-03-02T00:41:33;12.90;50.10
3868;DHT22;1949;48.152;11.528;2024-03-02T00:44:04;12.90;50.10
3868;DHT22;1949;48.152;11.528;2024-03-02T00:46:36;12.90;50.20
3868;DHT22;1949;48.152;11.528;2024-03-02T00:51:46;12.90;50.20
3868;DHT22;1949;48.152;11.528;2024-03-02T00:54:15;12.90;50.10
3868;DHT22;1949;48.152;11.528;2024-03-02T00:56:43;12.90;50.10
3868;DHT22;1949;48.152;11.528;2024-03-02T00:59:10;12.80;50.00
3868;DHT22;1949;48.152;11.528;2024-03-02T01:01:39;12.80;50.10
3868;DHT22;1949;48.152;11.528;2024-03-02T01:04:07;12.80;50.10
3868;DHT22;1949;48.152;11.528;2024-03-02T01:06:35;12.80;50.20
3868;DHT22;1949;48.152;11.528;2024-03-02T01:09:01;12.80;50.30
3868;DHT22;1949;48.152;11.528;2024-03-02T01:11:28;12.90;50.30
3868;DHT22;1949;48.152;11.528;2024-03-02T01:13:54;12.90;50.20
3868;DHT22;1949;48.152;11.528;2024-03-02T01:16:20;12.80;49.90
3868;DHT22;1949;48.152;11.528;2024-03-02T01:18:46;12.80;50.00
3868;DHT22;1949;48.152;11.528;2024-03-02T01:21:17;12.70;49.90
3868;DHT22;1949;48.152;11.528;2024-03-02T01:23:43;12.70;50.10
3868;DHT22;1949;48.152;11.528;2024-03-02T01:26:14;12.70;50.20
3868;DHT22;1949;48.152;11.528;2024-03-02T01:28:39;12.70;50.30
3868;DHT22;1949;48.152;11.528;2024-03-02T01:31:11;12.80;50.30
3868;DHT22;1949;48.152;11.528;2024-03-02T01:33:37;12.80;50.80
3868;DHT22;1949;48.152;11.528;2024-03-02T01:36:08;12.80;50.20
3868;DHT22;1949;48.152;11.528;2024-03-02T01:38:33;12.90;50.20
3868;DHT22;1949;48.152;11.528;2024-03-02T01:41:02;12.90;50.20
3868;DHT22;1949;48.152;11.528;2024-03-02T01:43:29;12.90;50.10
3868;DHT22;1949;48.152;11.528;2024-03-02T01:45:55;13.00;50.10
3868;DHT22;1949;48.152;11.528;2024-03-02T01:48:22;13.00;50.00
3868;DHT22;1949;48.152;11.528;2024-03-02T01:50:47;12.90;49.90
3868;DHT22;1949;48.152;11.528;2024-03-02T01:53:13;12.90;50.00
3868;DHT22;1949;48.152;11.528;2024-03-02T01:55:39;12.90;50.00
3868;DHT22;1949;48.152;11.528;2024-03-02T01:58:07;12.90;50.00
3868;DHT22;1949;48.152;11.528;2024-03-02T02:00:49;12.90;50.00
3868;DHT22;1949;48.152;11.528;2024-03-02T02:03:22;12.90;49.90
3868;DHT22;1949;48.152;11.528;2024-03-02T02:05:54;12.90;49.90
3868;DHT22;1949;48.152;11.528;2024-03-02T02:08:30;12.90;49.90
3868;DHT22;1949;48.152;11.528;2024-03-02T02:10:58;12.90;49.90
3868;DHT22;1949;48.152;11.528;2024-03-02T02:13:30;12.90;50.00
3868;DHT22;1949;48.152;11.528;2024-03-02T02:15:55;12.80;50.00
3868;DHT22;1949;48.152;11.528;2024-03-02T02:18:29;12.90;50.10
3868;DHT22;1949;48.152;11.528;2024-03-02T02:20:57;12.90;50.10
3868;DHT22;1949;48.152;11.528;2024-03-02T02:23:26;12.90;50.00
3868;DHT22;1949;48.152;11.528;2024-03-02T02:25:54;12.90;50.00
3868;DHT22;1949;48.152;11.528;2024-03-02T02:28:20;12.90;50.00
3868;DHT22;1949;48.152;11.528;2024-03-02T02:30:54;12.90;50.00
3868;DHT22;1949;48.152;11.528;2024-03-02T02:33:32;12.90;49.90
3868;DHT22;1949;48.152;11.528;2024-03-02T02:36:00;13.00;49.80
3868;DHT22;1949;48.152;11.528;2024-03-02T02:38:31;12.90;49.80
3868;DHT22;1949;48.152;11.528;2024-03-02T02:41:04;12.90;49.90
3868;DHT22;1949;48.152;11.528;2024-03-02T02:43:32;12.90;49.90
3868;DHT22;1949;48.152;11.528;2024-03-02T02:45:59;12.90;50.10
3868;DHT22;1949;48.152;11.528;2024-03-02T02:48:27;12.90;50.10
3868;DHT22;1949;48.152;11.528;2024-03-02T02:50:57;12.90;50.00
3868;DHT22;1949;48.152;11.528;2024-03-02T02:53:23;13.00;50.00
3868;DHT22;1949;48.152;11.528;2024-03-02T02:55:48;13.00;50.00
3868;DHT22;1949;48.152;11.528;2024-03-02T02:58:19;13.00;50.00
3868;DHT22;1949;48.152;11.528;2024-03-02T03:00:49;13.10;50.00
3868;DHT22;1949;48.152;11.528;2024-03-02T03:03:18;13.10;49.90
3868;DHT22;1949;48.152;11.528;2024-03-02T03:05:50;13.10;49.90
3868;DHT22;1949;48.152;11.528;2024-03-02T03:08:17;13.10;49.90
3868;DHT22;1949;48.152;11.528;2024-03-02T03:10:50;13.10;49.90
3868;DHT22;1949;48.152;11.528;2024-03-02T03:13:24;13.10;50.00
3868;DHT22;1949;48.152;11.528;2024-03-02T03:15:50;13.10;50.00
3868;DHT22;1949;48.152;11.528;2024-03-02T03:18:15;13.10;49.90
3868;DHT22;1949;48.152;11.528;2024-03-02T03:20:41;13.10;49.90
3868;DHT22;1949;48.152;11.528;2024-03-02T03:23:15;13.10;49.80
3868;DHT22;1949;48.152;11.528;2024-03-02T03:25:42;13.10;49.90
3868;DHT22;1949;48.152;11.528;2024-03-02T03:28:20;13.20;49.90
3868;DHT22;1949;48.152;11.528;2024-03-02T03:30:51;13.20;49.90
3868;DHT22;1949;48.152;11.528;2024-03-02T03:33:16;13.20;49.80
3868;DHT22;1949;48.152;11.528;2024-03-02T03:35:57;13.20;49.80
3868;DHT22;1949;48.152;11.528;2024-03-02T03:38:22;13.20;49.80
3868;DHT22;1949;48.152;11.528;2024-03-02T03:40:50;13.20;49.80
3868;DHT22;1949;48.152;11.528;2024-03-02T03:43:16;13.20;49.80
3868;DHT22;1949;48.152;11.528;2024-03-02T03:45:43;13.10;49.80
3868;DHT22;1949;48.152;11.528;2024-03-02T03:48:10;13.10;49.70
3868;DHT22;1949;48.152;11.528;2024-03-02T03:50:41;13.10;49.80
3868;DHT22;1949;48.152;11.528;2024-03-02T03:53:07;13.10;49.80
3868;DHT22;1949;48.152;11.528;2024-03-02T03:55:32;13.00;49.80
3868;DHT22;1949;48.152;11.528;2024-03-02T03:57:59;13.00;49.90
3868;DHT22;1949;48.152;11.528;2024-03-02T04:00:27;13.00;49.90
3868;DHT22;1949;48.152;11.528;2024-03-02T04:02:55;12.90;49.90
3868;DHT22;1949;48.152;11.528;2024-03-02T04:05:23;12.90;50.00
3868;DHT22;1949;48.152;11.528;2024-03-02T04:07:48;12.90;50.00
3868;DHT22;1949;48.152;11.528;2024-03-02T04:10:14;12.90;50.00
3868;DHT22;1949;48.152;11.528;2024-03-02T04:12:42;12.90;50.10
3868;DHT22;1949;48.152;11.528;2024-03-02T04:15:08;12.90;50.10
3868;DHT22;1949;48.152;11.528;2024-03-02T04:17:39;12.90;50.00
3868;DHT22;1949;48.152;11.528;2024-03-02T04:20:07;13.00;50.10
3868;DHT22;1949;48.152;11.528;2024-03-02T04:22:39;13.00;50.10
3868;DHT22;1949;48.152;11.528;2024-03-02T04:25:04;13.00;50.00
3868;DHT22;1949;48.152;11.528;2024-03-02T04:27:40;13.00;50.00
3868;DHT22;1949;48.152;11.528;2024-03-02T04:30:09;13.10;50.00
3868;DHT22;1949;48.152;11.528;2024-03-02T04:32:40;13.00;49.80
3868;DHT22;1949;48.152;11.528;2024-03-02T04:35:15;13.00;50.00
3868;DHT22;1949;48.152;11.528;2024-03-02T04:37:42;13.10;50.00
3868;DHT22;1949;48.152;11.528;2024-03-02T04:40:21;13.10;50.00
3868;DHT22;1949;48.152;11.528;2024-03-02T04:42:47;13.10;50.00
3868;DHT22;1949;48.152;11.528;2024-03-02T04:45:12;13.10;50.00
3868;DHT22;1949;48.152;11.528;2024-03-02T04:47:38;13.10;50.50
3868;DHT22;1949;48.152;11.528;2024-03-02T04:50:04;13.10;49.90
3868;DHT22;1949;48.152;11.528;2024-03-02T04:52:30;13.10;49.80
3868;DHT22;1949;48.152;11.528;2024-03-02T04:54:56;13.10;49.90
3868;DHT22;1949;48.152;11.528;2024-03-02T04:57:40;13.10;49.90
3868;DHT22;1949;48.152;11.528;2024-03-02T05:00:06;13.10;49.90
3868;DHT22;1949;48.152;11.528;2024-03-02T05:02:36;13.00;49.80
3868;DHT22;1949;48.152;11.528;2024-03-02T05:05:02;13.00;49.90
3868;DHT22;1949;48.152;11.528;2024-03-02T05:07:28;13.00;50.00
3868;DHT22;1949;48.152;11.528;2024-03-02T05:09:54;13.00;49.80
3868;DHT22;1949;48.152;11.528;2024-03-02T05:12:19;13.00;49.80
3868;DHT22;1949;48.152;11.528;2024-03-02T05:15:04;13.00;49.90
3868;DHT22;1949;48.152;11.528;2024-03-02T05:17:30;13.00;50.00
3868;DHT22;1949;48.152;11.528;2024-03-02T05:20:00;13.00;50.10
3868;DHT22;1949;48.152;11.528;2024-03-02T05:22:32;12.90;50.00
3868;DHT22;1949;48.152;11.528;2024-03-02T05:24:59;12.90;50.10
3868;DHT22;1949;48.152;11.528;2024-03-02T05:28:01;13.00;50.20
3868;DHT22;1949;48.152;11.528;2024-03-02T05:30:29;13.00;50.10
3868;DHT22;1949;48.152;11.528;2024-03-02T05:32:56;13.10;50.10
3868;DHT22;1949;48.152;11.528;2024-03-02T05:35:22;13.10;50.10
3868;DHT22;1949;48.152;11.528;2024-03-02T05:37:55;13.10;50.00
3868;DHT22;1949;48.152;11.528;2024-03-02T05:40:22;13.10;50.00
3868;DHT22;1949;48.152;11.528;2024-03-02T05:42:47;13.10;50.00
3868;DHT22;1949;48.152;11.528;2024-03-02T05:45:13;13.10;49.90
3868;DHT22;1949;48.152;11.528;2024-03-02T05:47:42;13.00;49.80
3868;DHT22;1949;48.152;11.528;2024-03-02T05:50:08;13.00;50.00
3868;DHT22;1949;48.152;11.528;2024-03-02T05:52:39;13.00;50.10
3868;DHT22;1949;48.152;11.528;2024-03-02T05:55:05;13.00;50.20
3868;DHT22;1949;48.152;11.528;2024-03-02T05:57:30;13.00;50.20
3868;DHT22;1949;48.152;11.528;2024-03-02T06:00:11;13.00;50.20
3868;DHT22;1949;48.152;11.528;2024-03-02T06:02:45;13.00;50.10
3868;DHT22;1949;48.152;11.528;2024-03-02T06:05:11;13.00;50.10
3868;DHT22;1949;48.152;11.528;2024-03-02T06:07:37;13.00;50.00
3868;DHT22;1949;48.152;11.528;2024-03-02T06:10:08;13.00;50.10
3868;DHT22;1949;48.152;11.528;2024-03-02T06:12:34;12.90;50.10
3868;DHT22;1949;48.152;11.528;2024-03-02T06:15:01;13.00;50.20
3868;DHT22;1949;48.152;11.528;2024-03-02T06:17:27;13.00;50.20
3868;DHT22;1949;48.152;11.528;2024-03-02T06:19:53;13.00;50.20
3868;DHT22;1949;48.152;11.528;2024-03-02T06:22:20;13.00;50.10
3868;DHT22;1949;48.152;11.528;2024-03-02T06:24:47;13.00;50.20
3868;DHT22;1949;48.152;11.528;2024-03-02T06:27:15;13.00;50.10
3868;DHT22;1949;48.152;11.528;2024-03-02T06:29:43;13.00;50.10
3868;DHT22;1949;48.152;11.528;2024-03-02T06:32:09;13.00;50.10
3868;DHT22;1949;48.152;11.528;2024-03-02T06:34:35;12.90;50.20
3868;DHT22;1949;48.152;11.528;2024-03-02T06:37:03;12.90;50.20
3868;DHT22;1949;48.152;11.528;2024-03-02T06:39:32;13.00;50.30
3868;DHT22;1949;48.152;11.528;2024-03-02T06:42:03;13.00;50.20
3868;DHT22;1949;48.152;11.528;2024-03-02T06:44:34;12.90;50.10
3868;DHT22;1949;48.152;11.528;2024-03-02T06:47:01;12.90;50.00
3868;DHT22;1949;48.152;11.528;2024-03-02T06:49:37;12.90;50.10
3868;DHT22;1949;48.152;11.528;2024-03-02T06:52:03;12.90;50.20
3868;DHT22;1949;48.152;11.528;2024-03-02T06:54:34;12.90;50.20
3868;DHT22;1949;48.152;11.528;2024-03-02T06:57:01;12.90;50.30
3868;DHT22;1949;48.152;11.528;2024-03-02T06:59:28;12.90;50.30
3868;DHT22;1949;48.152;11.528;2024-03-02T07:01:53;12.90;50.40
3868;DHT22;1949;48.152;11.528;2024-03-02T07:04:20;12.90;50.30
3868;DHT22;1949;48.152;11.528;2024-03-02T07:06:48;13.00;50.30
3868;DHT22;1949;48.152;11.528;2024-03-02T07:09:15;13.00;50.30
3868;DHT22;1949;48.152;11.528;2024-03-02T07:11:50;13.00;50.30
3868;DHT22;1949;48.152;11.528;2024-03-02T07:14:16;13.10;50.30
3868;DHT22;1949;48.152;11.528;2024-03-02T07:16:42;13.10;50.20
3868;DHT22;1949;48.152;11.528;2024-03-02T07:19:08;13.10;50.20
3868;DHT22;1949;48.152;11.528;2024-03-02T07:21:35;13.10;50.10
3868;DHT22;1949;48.152;11.528;2024-03-02T07:24:04;13.10;50.10
3868;DHT22;1949;48.152;11.528;2024-03-02T07:26:31;13.10;50.10
3868;DHT22;1949;48.152;11.528;2024-03-02T07:29:13;13.10;50.10
3868;DHT22;1949;48.152;11.528;2024-03-02T07:31:39;13.20;50.20
3868;DHT22;1949;48.152;11.528;2024-03-02T07:34:06;13.20;50.10
3868;DHT22;1949;48.152;11.528;2024-03-02T07:36:34;13.10;50.10
3868;DHT22;1949;48.152;11.528;2024-03-02T07:39:02;13.20;50.10
3868;DHT22;1949;48.152;11.528;2024-03-02T07:41:27;13.10;50.10
3868;DHT22;1949;48.152;11.528;2024-03-02T07:43:54;13.10;50.10
3868;DHT22;1949;48.152;11.528;2024-03-02T07:46:22;13.20;50.30
3868;DHT22;1949;48.152;11.528;2024-03-02T07:48:54;13.20;50.30
3868;DHT22;1949;48.152;11.528;2024-03-02T07:51:25;13.20;50.30
3868;DHT22;1949;48.152;11.528;2024-03-02T07:53:53;13.30;50.30
3868;DHT22;1949;48.152;11.528;2024-03-02T07:56:19;13.30;50.20
3868;DHT22;1949;48.152;11.528;2024-03-02T07:58:48;13.40;50.10
3868;DHT22;1949;48.152;11.528;2024-03-02T08:01:21;13.40;49.90
3868;DHT22;1949;48.152;11.528;2024-03-02T08:03:47;13.30;49.70
3868;DHT22;1949;48.152;11.528;2024-03-02T08:06:19;13.30;49.80
3868;DHT22;1949;48.152;11.528;2024-03-02T08:09:05;13.20;49.80
3868;DHT22;1949;48.152;11.528;2024-03-02T08:11:36;13.20;49.90
3868;DHT22;1949;48.152;11.528;2024-03-02T08:14:05;13.20;50.00
3868;DHT22;1949;48.152;11.528;2024-03-02T08:16:37;13.20;50.10
3868;DHT22;1949;48.152;11.528;2024-03-02T08:19:11;13.20;49.90
3868;DHT22;1949;48.152;11.528;2024-03-02T08:21:51;13.20;50.10
3868;DHT22;1949;48.152;11.528;2024-03-02T08:24:17;13.30;50.20
3868;DHT22;1949;48.152;11.528;2024-03-02T08:26:44;13.40;50.10
3868;DHT22;1949;48.152;11.528;2024-03-02T08:29:11;13.40;50.00
3868;DHT22;1949;48.152;11.528;2024-03-02T08:31:40;13.50;50.00
3868;DHT22;1949;48.152;11.528;2024-03-02T08:34:06;13.60;50.00
3868;DHT22;1949;48.152;11.528;2024-03-02T08:36:39;13.60;49.80
3868;DHT22;1949;48.152;11.528;2024-03-02T08:39:05;13.70;49.80
3868;DHT22;1949;48.152;11.528;2024-03-02T08:41:49;13.70;49.80
3868;DHT22;1949;48.152;11.528;2024-03-02T08:44:16;13.80;49.60
3868;DHT22;1949;48.152;11.528;2024-03-02T08:46:43;13.70;49.40
3868;DHT22;1949;48.152;11.528;2024-03-02T08:49:09;13.70;49.60
3868;DHT22;1949;48.152;11.528;2024-03-02T08:51:41;13.70;49.60
3868;DHT22;1949;48.152;11.528;2024-03-02T08:57:29;13.70;49.80
3868;DHT22;1949;48.152;11.528;2024-03-02T08:59:55;13.80;49.80
3868;DHT22;1949;48.152;11.528;2024-03-02T09:02:21;13.90;49.80
3868;DHT22;1949;48.152;11.528;2024-03-02T09:04:47;14.00;49.80
3868;DHT22;1949;48.152;11.528;2024-03-02T09:07:13;14.00;49.70
3868;DHT22;1949;48.152;11.528;2024-03-02T09:09:42;14.10;49.70
3868;DHT22;1949;48.152;11.528;2024-03-02T09:12:08;14.20;49.70
3868;DHT22;1949;48.152;11.528;2024-03-02T09:14:35;14.30;49.80
3868;DHT22;1949;48.152;11.528;2024-03-02T09:17:02;14.30;49.60
3868;DHT22;1949;48.152;11.528;2024-03-02T09:19:28;14.40;49.60
3868;DHT22;1949;48.152;11.528;2024-03-02T09:21:53;14.50;49.60
3868;DHT22;1949;48.152;11.528;2024-03-02T09:24:21;14.50;49.50
3868;DHT22;1949;48.152;11.528;2024-03-02T09:26:47;14.60;49.60
3868;DHT22;1949;48.152;11.528;2024-03-02T09:29:12;14.60;49.50
3868;DHT22;1949;48.152;11.528;2024-03-02T09:31:42;14.70;49.60
3868;DHT22;1949;48.152;11.528;2024-03-02T09:34:13;14.70;49.50
3868;DHT22;1949;48.152;11.528;2024-03-02T09:36:42;14.80;49.50
3868;DHT22;1949;48.152;11.528;2024-03-02T09:39:08;14.80;49.40
3868;DHT22;1949;48.152;11.528;2024-03-02T09:41:38;14.80;49.40
3868;DHT22;1949;48.152;11.528;2024-03-02T09:44:05;14.80;49.40
3868;DHT22;1949;48.152;11.528;2024-03-02T09:46:31;14.80;49.50
3868;DHT22;1949;48.152;11.528;2024-03-02T09:48:57;14.90;49.50
3868;DHT22;1949;48.152;11.528;2024-03-02T09:51:23;14.90;49.40
3868;DHT22;1949;48.152;11.528;2024-03-02T09:53:50;14.90;49.30
3868;DHT22;1949;48.152;11.528;2024-03-02T09:56:17;14.90;49.30
3868;DHT22;1949;48.152;11.528;2024-03-02T09:58:44;15.00;49.30
3868;DHT22;1949;48.152;11.528;2024-03-02T10:01:10;15.00;49.20
3868;DHT22;1949;48.152;11.528;2024-03-02T10:03:37;15.00;49.00
3868;DHT22;1949;48.152;11.528;2024-03-02T10:06:22;15.00;49.10
3868;DHT22;1949;48.152;11.528;2024-03-02T10:08:50;15.00;49.10
3868;DHT22;1949;48.152;11.528;2024-03-02T10:11:28;15.00;49.10
3868;DHT22;1949;48.152;11.528;2024-03-02T10:14:07;15.00;49.00
3868;DHT22;1949;48.152;11.528;2024-03-02T10:16:43;15.00;48.80
3868;DHT22;1949;48.152;11.528;2024-03-02T10:19:20;14.90;48.70
3868;DHT22;1949;48.152;11.528;2024-03-02T10:21:50;14.90;48.90
3868;DHT22;1949;48.152;11.528;2024-03-02T10:24:16;14.90;49.00
3868;DHT22;1949;48.152;11.528;2024-03-02T10:26:43;14.90;49.00
3868;DHT22;1949;48.152;11.528;2024-03-02T10:29:09;15.00;49.10
3868;DHT22;1949;48.152;11.528;2024-03-02T10:31:38;15.00;49.10
3868;DHT22;1949;48.152;11.528;2024-03-02T10:34:04;15.00;49.00
3868;DHT22;1949;48.152;11.528;2024-03-02T10:36:30;15.10;49.10
3868;DHT22;1949;48.152;11.528;2024-03-02T10:39:06;15.10;48.90
3868;DHT22;1949;48.152;11.528;2024-03-02T10:41:37;15.10;48.80
3868;DHT22;1949;48.152;11.528;2024-03-02T10:44:04;15.10;48.80
3868;DHT22;1949;48.152;11.528;2024-03-02T10:46:33;15.20;48.80
3868;DHT22;1949;48.152;11.528;2024-03-02T10:49:01;15.20;48.80
3868;DHT22;1949;48.152;11.528;2024-03-02T10:51:30;15.20;48.60
3868;DHT22;1949;48.152;11.528;2024-03-02T10:53:59;15.20;48.60
3868;DHT22;1949;48.152;11.528;2024-03-02T10:56:31;15.20;48.60
3868;DHT22;1949;48.152;11.528;2024-03-02T10:59:16;15.20;48.60
3868;DHT22;1949;48.152;11.528;2024-03-02T11:01:47;15.20;48.60
3868;DHT22;1949;48.152;11.528;2024-03-02T11:04:16;15.20;48.60
3868;DHT22;1949;48.152;11.528;2024-03-02T11:06:48;15.30;48.60
3868;DHT22;1949;48.152;11.528;2024-03-02T11:09:16;15.30;48.70
3868;DHT22;1949;48.152;11.528;2024-03-02T11:11:45;15.30;48.50
3868;DHT22;1949;48.152;11.528;2024-03-02T11:14:16;15.40;48.60
3868;DHT22;1949;48.152;11.528;2024-03-02T11:16:47;15.40;48.50
3868;DHT22;1949;48.152;11.528;2024-03-02T11:19:17;15.50;48.40
3868;DHT22;1949;48.152;11.528;2024-03-02T11:21:43;15.50;48.30
3868;DHT22;1949;48.152;11.528;2024-03-02T11:26:53;15.50;48.30
3868;DHT22;1949;48.152;11.528;2024-03-02T11:32:22;15.60;48.50
3868;DHT22;1949;48.152;11.528;2024-03-02T11:34:51;15.60;48.40
3868;DHT22;1949;48.152;11.528;2024-03-02T11:37:19;15.70;48.30
3868;DHT22;1949;48.152;11.528;2024-03-02T11:39:51;15.80;48.40
3868;DHT22;1949;48.152;11.528;2024-03-02T11:42:17;15.80;48.40
3868;DHT22;1949;48.152;11.528;2024-03-02T11:44:51;15.90;48.40
3868;DHT22;1949;48.152;11.528;2024-03-02T11:47:17;16.00;48.40
3868;DHT22;1949;48.152;11.528;2024-03-02T11:49:50;16.10;48.40
3868;DHT22;1949;48.152;11.528;2024-03-02T11:52:20;16.30;48.50
3868;DHT22;1949;48.152;11.528;2024-03-02T11:54:48;16.40;48.40
3868;DHT22;1949;48.152;11.528;2024-03-02T11:57:18;16.50;48.30
3868;DHT22;1949;48.152;11.528;2024-03-02T11:59:49;16.60;48.20
3868;DHT22;1949;48.152;11.528;2024-03-02T12:02:21;16.70;48.20
3868;DHT22;1949;48.152;11.528;2024-03-02T12:04:49;16.90;48.20
3868;DHT22;1949;48.152;11.528;2024-03-02T12:07:19;17.10;48.20
3868;DHT22;1949;48.152;11.528;2024-03-02T12:10:08;17.20;48.00
3868;DHT22;1949;48.152;11.528;2024-03-02T12:12:35;17.40;48.10
3868;DHT22;1949;48.152;11.528;2024-03-02T12:15:09;17.60;47.90
3868;DHT22;1949;48.152;11.528;2024-03-02T12:17:35;17.80;47.80
3868;DHT22;1949;48.152;11.528;2024-03-02T12:20:05;18.00;47.70
3868;DHT22;1949;48.152;11.528;2024-03-02T12:22:32;18.10;47.40
3868;DHT22;1949;48.152;11.528;2024-03-02T12:24:58;18.30;47.40
3868;DHT22;1949;48.152;11.528;2024-03-02T12:27:25;18.40;47.20
3868;DHT22;1949;48.152;11.528;2024-03-02T12:29:54;18.60;47.10
3868;DHT22;1949;48.152;11.528;2024-03-02T12:32:21;18.70;47.00
3868;DHT22;1949;48.152;11.528;2024-03-02T12:34:48;18.80;46.90
3868;DHT22;1949;48.152;11.528;2024-03-02T12:37:16;19.00;46.90
3868;DHT22;1949;48.152;11.528;2024-03-02T12:39:58;19.20;46.80
3868;DHT22;1949;48.152;11.528;2024-03-02T12:42:24;19.40;46.80
3868;DHT22;1949;48.152;11.528;2024-03-02T12:44:55;19.60;46.50
3868;DHT22;1949;48.152;11.528;2024-03-02T12:47:24;19.80;46.20
3868;DHT22;1949;48.152;11.528;2024-03-02T12:49:53;20.00;46.10
3868;DHT22;1949;48.152;11.528;2024-03-02T12:52:20;20.20;45.90
3868;DHT22;1949;48.152;11.528;2024-03-02T12:54:48;20.30;45.70
3868;DHT22;1949;48.152;11.528;2024-03-02T12:57:18;20.30;45.50
3868;DHT22;1949;48.152;11.528;2024-03-02T12:59:59;20.40;45.30
3868;DHT22;1949;48.152;11.528;2024-03-02T13:02:29;20.40;45.30
3868;DHT22;1949;48.152;11.528;2024-03-02T13:04:58;20.50;45.20
3868;DHT22;1949;48.152;11.528;2024-03-02T13:07:25;20.50;45.10
3868;DHT22;1949;48.152;11.528;2024-03-02T13:09:51;20.50;44.90
3868;DHT22;1949;48.152;11.528;2024-03-02T13:12:25;20.50;44.90
3868;DHT22;1949;48.152;11.528;2024-03-02T13:14:54;20.50;44.90
3868;DHT22;1949;48.152;11.528;2024-03-02T13:20:33;20.70;45.00
3868;DHT22;1949;48.152;11.528;2024-03-02T13:23:05;20.80;44.90
3868;DHT22;1949;48.152;11.528;2024-03-02T13:25:30;20.80;44.80
3868;DHT22;1949;48.152;11.528;2024-03-02T13:28:26;20.90;44.60
3868;DHT22;1949;48.152;11.528;2024-03-02T13:30:54;21.00;44.80
3868;DHT22;1949;48.152;11.528;2024-03-02T13:33:20;21.10;44.40
3868;DHT22;1949;48.152;11.528;2024-03-02T13:35:54;21.20;44.50
3868;DHT22;1949;48.152;11.528;2024-03-02T13:38:31;21.40;44.50
3868;DHT22;1949;48.152;11.528;2024-03-02T13:44:21;21.70;44.40
3868;DHT22;1949;48.152;11.528;2024-03-02T13:53:36;22.40;44.20
3868;DHT22;1949;48.152;11.528;2024-03-02T13:56:03;22.60;43.60
3868;DHT22;1949;48.152;11.528;2024-03-02T13:58:28;22.70;43.30
3868;DHT22;1949;48.152;11.528;2024-03-02T14:00:54;22.80;42.90
3868;DHT22;1949;48.152;11.528;2024-03-02T14:03:23;22.90;42.90
3868;DHT22;1949;48.152;11.528;2024-03-02T14:05:50;23.00;42.70
3868;DHT22;1949;48.152;11.528;2024-03-02T14:08:18;23.10;42.30
3868;DHT22;1949;48.152;11.528;2024-03-02T14:10:45;23.10;42.30
3868;DHT22;1949;48.152;11.528;2024-03-02T14:13:13;23.10;42.20
3868;DHT22;1949;48.152;11.528;2024-03-02T14:15:41;23.20;42.00
3868;DHT22;1949;48.152;11.528;2024-03-02T14:18:20;23.20;42.00
3868;DHT22;1949;48.152;11.528;2024-03-02T14:20:48;23.30;42.10
3868;DHT22;1949;48.152;11.528;2024-03-02T14:23:43;23.40;41.60
3868;DHT22;1949;48.152;11.528;2024-03-02T14:26:19;23.50;41.90
3868;DHT22;1949;48.152;11.528;2024-03-02T14:28:46;23.50;41.40
3868;DHT22;1949;48.152;11.528;2024-03-02T14:34:21;23.60;41.50
3868;DHT22;1949;48.152;11.528;2024-03-02T14:36:49;23.70;41.00
3868;DHT22;1949;48.152;11.528;2024-03-02T14:39:30;23.70;40.60
3868;DHT22;1949;48.152;11.528;2024-03-02T14:42:01;23.70;40.80
3868;DHT22;1949;48.152;11.528;2024-03-02T14:44:43;23.70;40.50
3868;DHT22;1949;48.152;11.528;2024-03-02T14:47:10;23.80;40.70
3868;DHT22;1949;48.152;11.528;2024-03-02T14:49:39;23.80;40.30
3868;DHT22;1949;48.152;11.528;2024-03-02T14:52:07;23.80;40.10
3868;DHT22;1949;48.152;11.528;2024-03-02T14:54:41;23.80;40.00
3868;DHT22;1949;48.152;11.528;2024-03-02T14:57:09;23.90;40.10
3868;DHT22;1949;48.152;11.528;2024-03-02T14:59:38;23.90;39.80
3868;DHT22;1949;48.152;11.528;2024-03-02T15:02:08;23.90;39.60
3868;DHT22;1949;48.152;11.528;2024-03-02T15:04:57;23.90;39.50
3868;DHT22;1949;48.152;11.528;2024-03-02T15:07:42;23.90;39.80
3868;DHT22;1949;48.152;11.528;2024-03-02T15:10:11;23.80;39.70
3868;DHT22;1949;48.152;11.528;2024-03-02T15:12:37;23.80;39.50
3868;DHT22;1949;48.152;11.528;2024-03-02T15:15:10;23.80;39.30
3868;DHT22;1949;48.152;11.528;2024-03-02T15:17:44;23.70;39.20
3868;DHT22;1949;48.152;11.528;2024-03-02T15:20:10;23.70;39.20
3868;DHT22;1949;48.152;11.528;2024-03-02T15:22:38;23.50;39.10
3868;DHT22;1949;48.152;11.528;2024-03-02T15:25:10;23.40;39.10
3868;DHT22;1949;48.152;11.528;2024-03-02T15:27:36;23.30;39.20
3868;DHT22;1949;48.152;11.528;2024-03-02T15:30:01;23.20;39.10
3868;DHT22;1949;48.152;11.528;2024-03-02T15:32:28;23.10;39.10
3868;DHT22;1949;48.152;11.528;2024-03-02T15:34:54;23.00;39.20
3868;DHT22;1949;48.152;11.528;2024-03-02T15:37:27;22.80;39.20
3868;DHT22;1949;48.152;11.528;2024-03-02T15:39:55;22.70;39.30
3868;DHT22;1949;48.152;11.528;2024-03-02T15:42:22;22.70;39.40
3868;DHT22;1949;48.152;11.528;2024-03-02T15:44:52;22.60;39.50
3868;DHT22;1949;48.152;11.528;2024-03-02T15:47:22;22.40;39.30
3868;DHT22;1949;48.152;11.528;2024-03-02T15:49:47;22.20;39.30
3868;DHT22;1949;48.152;11.528;2024-03-02T15:52:16;21.90;39.40
3868;DHT22;1949;48.152;11.528;2024-03-02T15:54:48;21.60;39.40
3868;DHT22;1949;48.152;11.528;2024-03-02T15:57:17;21.40;39.70
3868;DHT22;1949;48.152;11.528;2024-03-02T15:59:43;21.10;39.90
3868;DHT22;1949;48.152;11.528;2024-03-02T16:02:09;20.90;40.10
3868;DHT22;1949;48.152;11.528;2024-03-02T16:04:35;20.80;40.30
3868;DHT22;1949;48.152;11.528;2024-03-02T16:07:01;20.60;40.40
3868;DHT22;1949;48.152;11.528;2024-03-02T16:09:30;20.40;40.60
3868;DHT22;1949;48.152;11.528;2024-03-02T16:11:58;20.30;40.70
3868;DHT22;1949;48.152;11.528;2024-03-02T16:14:28;20.20;40.80
3868;DHT22;1949;48.152;11.528;2024-03-02T16:16:54;20.00;40.90
3868;DHT22;1949;48.152;11.528;2024-03-02T16:19:20;19.90;41.10
3868;DHT22;1949;48.152;11.528;2024-03-02T16:21:45;19.80;41.20
3868;DHT22;1949;48.152;11.528;2024-03-02T16:24:13;19.60;41.30
3868;DHT22;1949;48.152;11.528;2024-03-02T16:26:39;19.60;41.40